Estación Meteorológica Peña el Pijo (Robertgarden) [ 01/30/23 14:23:21 CET ]

Fecha Hora Presion(HPa) Temp (°C) Humedad % Rocio (°C) Viento ( m/s) Direccion Lluvia 1Hora(mm) Lluvia 24H(mm) LLuvia Total(mm)
2012-Aug-20 01:01:17 1018.900 18.9 52 8.8         176.12
2012-Aug-20 02:01:16 1018.800 18.3 53 8.5         176.12
2012-Aug-20 03:03:17 1018.700 17.1 57 8.5         176.12
2012-Aug-20 04:01:14 1018.800 16.2 60 8.5         176.12
2012-Aug-20 05:01:14 1018.300 15.8 60 8.1         176.12
2012-Aug-20 06:01:13 1018.000 14.9 58 6.7         176.12
2012-Aug-20 07:01:12 1018.400 14.3 59 6.4         176.12
2012-Aug-20 08:01:15 1018.800 13.8 60 6.2         176.12
2012-Aug-20 09:01:12 1018.900 17.9 57 9.2         176.12
2012-Aug-20 10:01:13 1018.800 25.2 45 12.4         176.12
2012-Aug-20 11:01:14 1018.500 30.9 29 10.7         176.12
2012-Aug-20 12:01:14 1018.300 34.6 20 8.4         176.12
2012-Aug-20 13:01:13 1018.000 36.2 18 7.8 1.4 NE     176.12
2012-Aug-20 14:01:17 1017.700 37.9 18 9.1 0.9 NE     176.12
2012-Aug-20 15:01:11 1017.700 37.8 18 9.0         176.12
2012-Aug-20 16:01:16 1017.100 35.5 18 7.2 0.5 NE     176.12
2012-Aug-20 17:01:14 1016.700 34.1 20 8.0         176.12
2012-Aug-20 18:01:14 1016.700 32.9 22 8.2         176.12
2012-Aug-20 19:01:13 1017.000 31.2 26 9.2 0.5 SSW     176.12
2012-Aug-20 20:01:13 1017.300 29.8 30 10.4         176.12
2012-Aug-20 21:01:17 1017.300 27.8 34 10.4         176.12
2012-Aug-20 22:01:13 1017.900 24.4 42 10.6         176.12
2012-Aug-20 23:01:12 1018.300 21.8 50 10.9         176.12

Temperatura Máxima:37°    Temperatura Mínima:13°
Presión Máxima:1018.900 Hpa    Presión Mínima:1016.700 Hpa


Volver